Time;durP1;ratioP1;P1;durP2;ratioP2;P2;SDS_P1;SDS_P2;PMS_P1;PMS_P2;Temp;Humidity;BMP_temperature;BMP_pressure;BME280_temperature;BME280_humidity;BME280_pressure;Samples;Min_cycle;Max_cycle;Signal;HPM_P1;HPM_P2
2022/01/27 00:01:27;;;;;;;86.78;41.25;;;0.50;99.90;;;;;;5049533;28;20119;-56
2022/01/27 00:04:12;;;;;;;77.15;39.58;;;0.50;99.90;;;;;;5053350;28;20423;-54
2022/01/27 00:06:39;;;;;;;81.95;38.65;;;0.60;99.90;;;;;;5053552;28;20365;-55
2022/01/27 00:11:43;;;;;;;88.43;40.55;;;0.60;99.90;;;;;;5053363;28;20171;-56
2022/01/27 00:14:10;;;;;;;74.78;38.30;;;0.60;99.90;;;;;;5053354;28;20558;-56
2022/01/27 00:16:41;;;;;;;81.13;40.72;;;0.60;99.90;;;;;;5053422;28;20044;-55
2022/01/27 00:19:08;;;;;;;78.25;38.78;;;0.60;99.90;;;;;;5053172;28;20033;-56
2022/01/27 00:21:34;;;;;;;77.95;38.38;;;0.60;99.90;;;;;;5051945;28;20025;-56
2022/01/27 00:23:59;;;;;;;87.28;40.35;;;0.60;99.90;;;;;;5052924;28;20032;-56
2022/01/27 00:26:26;;;;;;;84.47;41.63;;;0.60;99.90;;;;;;5053191;28;20033;-57
2022/01/27 00:28:51;;;;;;;91.53;44.05;;;0.50;99.90;;;;;;5052754;28;20052;-52
2022/01/27 00:31:19;;;;;;;94.35;47.08;;;0.50;99.90;;;;;;5051734;28;20037;-53
2022/01/27 00:33:46;;;;;;;90.25;43.75;;;0.40;99.90;;;;;;5052963;28;20415;-56
2022/01/27 00:36:12;;;;;;;82.22;42.08;;;0.50;99.90;;;;;;5052721;28;20040;-55
2022/01/27 00:38:37;;;;;;;81.03;40.55;;;0.40;99.90;;;;;;5051353;28;20025;-55
2022/01/27 00:41:04;;;;;;;85.78;42.92;;;0.50;99.90;;;;;;5052650;28;20082;-57
2022/01/27 00:43:30;;;;;;;81.32;41.10;;;0.50;99.90;;;;;;5052759;28;20028;-56
2022/01/27 00:45:55;;;;;;;85.05;43.67;;;0.60;99.90;;;;;;5052734;28;20071;-54
2022/01/27 00:48:21;;;;;;;80.90;40.28;;;0.60;99.90;;;;;;5052759;28;20052;-53
2022/01/27 00:50:53;;;;;;;87.32;42.58;;;0.60;99.90;;;;;;5052201;28;20025;-53
2022/01/27 00:53:42;;;;;;;148.02;60.50;;;0.60;99.90;;;;;;5052599;28;20511;-56
2022/01/27 00:56:37;;;;;;;89.68;43.35;;;0.60;99.90;;;;;;5052518;28;20028;-56
2022/01/27 01:01:27;;;;;;;93.78;40.58;;;0.50;99.90;;;;;;5052431;28;20040;-56
2022/01/27 01:03:57;;;;;;;82.95;38.88;;;0.60;99.90;;;;;;5052259;28;20046;-54
2022/01/27 01:06:38;;;;;;;129.95;56.10;;;0.70;99.90;;;;;;5052446;28;20013;-56
2022/01/27 01:19:31;;;;;;;169.45;66.22;;;0.50;99.90;;;;;;5052169;28;20491;-57
2022/01/27 01:30:20;;;;;;;87.88;41.97;;;0.50;99.90;;;;;;5051714;28;20040;-54
2022/01/27 01:32:55;;;;;;;89.68;42.05;;;0.60;99.90;;;;;;5051784;28;20024;-53
2022/01/27 01:35:29;;;;;;;191.48;71.63;;;0.60;99.90;;;;;;5051849;28;20014;-56
2022/01/27 01:37:58;;;;;;;153.50;63.63;;;0.50;99.90;;;;;;5051639;28;20032;-56
2022/01/27 01:40:24;;;;;;;178.15;70.80;;;0.40;99.90;;;;;;5050512;28;20029;-54
2022/01/27 01:42:50;;;;;;;125.22;55.03;;;0.40;99.90;;;;;;5051360;28;20387;-57
2022/01/27 01:45:18;;;;;;;106.00;49.70;;;0.40;99.90;;;;;;5051591;28;20037;-54
2022/01/27 01:47:45;;;;;;;85.90;43.17;;;0.40;99.90;;;;;;5051549;28;20039;-56
2022/01/27 01:50:13;;;;;;;88.40;42.10;;;0.40;99.90;;;;;;5051338;28;20079;-57
2022/01/27 01:52:39;;;;;;;84.93;41.22;;;0.50;99.90;;;;;;5051583;28;20025;-57
2022/01/27 01:55:07;;;;;;;84.80;40.65;;;0.40;99.90;;;;;;5051320;28;20056;-55
2022/01/27 01:57:34;;;;;;;85.53;39.95;;;0.40;99.90;;;;;;5051304;28;20094;-55
2022/01/27 01:59:59;;;;;;;89.38;46.03;;;0.40;99.90;;;;;;5051198;28;20364;-55
2022/01/27 02:02:25;;;;;;;82.78;40.53;;;0.40;99.90;;;;;;5051284;28;20098;-56
2022/01/27 02:04:57;;;;;;;83.80;45.13;;;0.40;99.90;;;;;;5051160;28;20021;-55
2022/01/27 02:07:49;;;;;;;86.43;42.67;;;0.40;99.90;;;;;;5051506;28;20083;-56
2022/01/27 02:10:32;;;;;;;83.25;41.05;;;0.40;99.90;;;;;;5051080;28;20117;-57
2022/01/27 02:18:28;;;;;;;83.68;39.22;;;0.30;99.90;;;;;;5051048;28;20415;-56
2022/01/27 02:20:54;;;;;;;76.28;36.33;;;0.30;99.90;;;;;;5050441;28;20435;-56
2022/01/27 02:23:20;;;;;;;82.32;42.50;;;0.20;99.90;;;;;;5050809;28;20023;-57
2022/01/27 02:25:46;;;;;;;85.20;41.78;;;0.20;99.90;;;;;;5051118;28;20467;-53
2022/01/27 02:28:12;;;;;;;83.68;40.08;;;0.20;99.90;;;;;;5050872;28;20021;-56
2022/01/27 02:30:38;;;;;;;74.75;38.13;;;0.20;99.90;;;;;;5050688;28;20032;-54
2022/01/27 02:33:04;;;;;;;82.85;38.72;;;0.20;99.90;;;;;;5050333;28;20496;-55
2022/01/27 02:35:33;;;;;;;80.72;37.72;;;0.20;99.90;;;;;;5050705;28;20100;-54
2022/01/27 02:37:59;;;;;;;85.22;38.33;;;0.20;99.90;;;;;;5050693;28;20032;-53
2022/01/27 02:40:58;;;;;;;81.93;38.58;;;0.20;99.90;;;;;;5050594;28;20029;-53
2022/01/27 02:43:25;;;;;;;78.72;38.00;;;0.20;99.90;;;;;;5049037;28;20025;-54
2022/01/27 02:46:06;;;;;;;86.00;40.40;;;0.20;99.90;;;;;;5050359;28;20435;-56
2022/01/27 02:48:32;;;;;;;84.15;38.35;;;0.20;99.90;;;;;;5050631;28;20074;-53
2022/01/27 02:50:58;;;;;;;72.90;35.90;;;0.20;99.90;;;;;;5050478;28;20025;-54
2022/01/27 02:53:23;;;;;;;69.80;35.65;;;0.20;99.90;;;;;;5050415;28;20240;-56
2022/01/27 02:55:49;;;;;;;83.35;39.75;;;0.20;99.90;;;;;;5050237;28;20052;-57
2022/01/27 02:58:16;;;;;;;81.25;39.53;;;0.20;99.90;;;;;;5050887;28;20021;-56
2022/01/27 03:00:42;;;;;;;78.93;39.92;;;0.20;99.90;;;;;;5050233;28;20053;-56
2022/01/27 03:03:07;;;;;;;83.75;40.67;;;0.10;99.90;;;;;;5050160;28;20515;-56
2022/01/27 03:05:33;;;;;;;85.47;41.13;;;0.20;99.90;;;;;;5050490;28;20029;-56
2022/01/27 03:08:00;;;;;;;76.07;37.67;;;0.20;99.90;;;;;;5050215;28;20241;-55
2022/01/27 03:10:30;;;;;;;83.05;38.65;;;0.20;99.90;;;;;;5050147;28;20112;-56
2022/01/27 03:12:59;;;;;;;81.43;38.92;;;0.20;99.90;;;;;;5050086;28;20100;-56
2022/01/27 03:15:26;;;;;;;75.78;38.28;;;0.20;99.90;;;;;;5050079;28;20090;-55
2022/01/27 03:17:52;;;;;;;82.63;39.55;;;0.20;99.90;;;;;;5050314;28;20025;-55
2022/01/27 03:20:18;;;;;;;76.85;39.03;;;0.20;99.90;;;;;;5050212;28;20086;-54
2022/01/27 03:22:44;;;;;;;73.78;38.38;;;0.30;99.90;;;;;;5049951;28;20025;-56
2022/01/27 03:25:10;;;;;;;77.85;38.05;;;0.20;99.90;;;;;;5049999;28;20025;-53
2022/01/27 03:27:35;;;;;;;84.38;42.85;;;0.20;99.90;;;;;;5050086;28;20021;-55
2022/01/27 03:30:02;;;;;;;77.47;40.33;;;0.20;99.90;;;;;;5049953;28;20082;-54
2022/01/27 03:32:27;;;;;;;82.25;39.95;;;0.20;99.90;;;;;;5049843;28;20029;-56
2022/01/27 03:35:03;;;;;;;78.22;38.15;;;0.10;99.90;;;;;;5053197;28;20230;-56
2022/01/27 03:37:28;;;;;;;85.75;40.33;;;0.20;99.90;;;;;;5054102;28;20025;-56
2022/01/27 03:39:54;;;;;;;72.15;37.15;;;0.10;99.90;;;;;;5053970;28;20078;-56
2022/01/27 03:42:19;;;;;;;83.07;41.75;;;0.10;99.90;;;;;;5053985;28;20387;-56
2022/01/27 03:44:45;;;;;;;87.15;42.75;;;0.10;99.90;;;;;;5052404;28;20029;-56
2022/01/27 03:47:11;;;;;;;94.57;44.92;;;0.00;99.90;;;;;;5053711;28;20116;-53
2022/01/27 03:49:36;;;;;;;97.20;42.83;;;0.00;99.90;;;;;;5052404;28;20027;-57
2022/01/27 03:52:03;;;;;;;80.63;38.63;;;0.00;99.90;;;;;;5052452;28;20514;-56
2022/01/27 03:54:32;;;;;;;83.10;39.53;;;-0.10;99.90;;;;;;5053779;28;20024;-55
2022/01/27 03:56:59;;;;;;;91.45;41.85;;;-0.10;99.90;;;;;;5053606;28;20028;-56
2022/01/27 03:59:26;;;;;;;77.93;41.20;;;-0.10;99.90;;;;;;5053736;28;20241;-56
2022/01/27 04:01:58;;;;;;;78.00;38.60;;;-0.20;99.90;;;;;;5053481;28;20100;-53
2022/01/27 04:04:25;;;;;;;76.55;38.50;;;-0.20;99.90;;;;;;5053588;28;20017;-57
2022/01/27 04:06:58;;;;;;;80.20;40.83;;;-0.20;99.90;;;;;;5053363;28;20112;-55
2022/01/27 04:09:24;;;;;;;75.95;38.53;;;-0.20;99.90;;;;;;5053565;28;20372;-55
2022/01/27 04:11:56;;;;;;;91.05;42.15;;;-0.20;99.90;;;;;;5053115;28;20040;-54
2022/01/27 04:14:22;;;;;;;78.80;40.60;;;-0.30;99.90;;;;;;5053192;28;20067;-53
2022/01/27 04:16:53;;;;;;;92.90;43.38;;;-0.20;99.90;;;;;;5053290;28;20045;-55
2022/01/27 04:19:18;;;;;;;90.68;43.28;;;-0.30;99.90;;;;;;5053151;28;20025;-55
2022/01/27 04:21:44;;;;;;;104.50;43.75;;;-0.30;99.90;;;;;;5053058;28;20150;-56
2022/01/27 04:24:11;;;;;;;91.38;44.30;;;-0.30;99.90;;;;;;5053328;28;20075;-54
2022/01/27 04:26:43;;;;;;;91.20;44.83;;;-0.40;99.90;;;;;;5053165;28;20094;-55
2022/01/27 04:29:09;;;;;;;84.10;41.13;;;-0.40;99.90;;;;;;5052982;28;20028;-52
2022/01/27 04:31:39;;;;;;;95.68;47.42;;;-0.40;99.90;;;;;;5052977;28;20365;-54
2022/01/27 04:34:04;;;;;;;85.57;43.38;;;-0.40;99.90;;;;;;5051388;28;20021;-54
2022/01/27 04:36:32;;;;;;;85.95;43.85;;;-0.40;99.90;;;;;;5052937;28;20029;-55
2022/01/27 04:39:25;;;;;;;88.90;44.75;;;-0.50;99.90;;;;;;5051527;28;20031;-53
2022/01/27 04:41:54;;;;;;;85.45;44.13;;;-0.50;99.90;;;;;;5052612;28;20048;-55
2022/01/27 04:44:34;;;;;;;93.65;46.05;;;-0.50;99.90;;;;;;5051000;28;20481;-54
2022/01/27 04:47:06;;;;;;;90.20;43.88;;;-0.60;99.90;;;;;;5052615;28;20060;-55
2022/01/27 04:49:32;;;;;;;88.00;47.13;;;-0.60;99.90;;;;;;5052650;28;20029;-56
2022/01/27 04:51:58;;;;;;;89.82;45.17;;;-0.60;99.90;;;;;;5052714;28;20040;-56
2022/01/27 04:55:11;;;;;;;88.78;44.00;;;-0.60;99.90;;;;;;5052559;28;20453;-55
2022/01/27 04:57:09;;;;;;;90.40;44.53;;;-0.60;99.90;;;;;;5058690;28;20029;-56
2022/01/27 04:59:40;;;;;;;95.50;48.08;;;-0.70;99.90;;;;;;5052745;28;20370;-56
2022/01/27 05:02:17;;;;;;;;;;;-0.70;99.90;;;;;;5052811;28;20068;-54
2022/01/27 05:04:46;;;;;;;97.18;47.03;;;-0.70;99.90;;;;;;5052364;28;19912;-54
2022/01/27 05:07:11;;;;;;;99.35;45.65;;;-0.70;99.90;;;;;;5051006;28;20021;-55
2022/01/27 05:09:39;;;;;;;96.88;46.13;;;-0.80;99.90;;;;;;5052092;28;20086;-53
2022/01/27 05:12:16;;;;;;;107.10;49.20;;;-0.80;99.90;;;;;;5052193;28;20024;-54
2022/01/27 05:14:42;;;;;;;117.45;54.83;;;-0.80;99.90;;;;;;5051979;28;20392;-56
2022/01/27 05:17:07;;;;;;;84.88;43.38;;;-0.80;99.90;;;;;;5052088;28;20032;-56
2022/01/27 05:19:33;;;;;;;91.72;47.40;;;-0.70;99.90;;;;;;5052090;28;20155;-55
2022/01/27 05:21:59;;;;;;;350.45;137.98;;;-0.80;99.90;;;;;;5051997;28;20036;-55
2022/01/27 05:24:24;;;;;;;178.68;86.05;;;-0.70;99.90;;;;;;5052085;28;20036;-56
2022/01/27 05:26:50;;;;;;;99.63;49.25;;;-0.80;99.90;;;;;;5051720;28;20028;-55
2022/01/27 05:29:16;;;;;;;92.90;49.45;;;-0.80;99.90;;;;;;5052162;28;20040;-57
2022/01/27 05:31:43;;;;;;;124.65;59.22;;;-0.80;99.90;;;;;;5051969;28;20017;-53
2022/01/27 05:34:09;;;;;;;93.38;46.53;;;-0.90;99.90;;;;;;5050440;28;20021;-56
2022/01/27 05:36:34;;;;;;;90.07;43.50;;;-0.90;99.90;;;;;;5051078;28;20075;-56
2022/01/27 05:39:01;;;;;;;94.05;47.25;;;-0.80;99.90;;;;;;5051527;28;20013;-56
2022/01/27 05:41:27;;;;;;;86.03;45.42;;;-0.90;99.90;;;;;;5051681;28;20025;-56
2022/01/27 05:43:52;;;;;;;98.88;44.28;;;-0.90;99.90;;;;;;5051461;28;20071;-55
2022/01/27 05:46:18;;;;;;;101.07;48.33;;;-1.00;99.90;;;;;;5051625;28;20434;-56
2022/01/27 05:48:44;;;;;;;92.78;47.53;;;-1.00;99.90;;;;;;5051735;28;20533;-56
2022/01/27 05:51:12;;;;;;;95.53;45.05;;;-1.00;99.90;;;;;;5051346;28;20120;-54
2022/01/27 05:53:38;;;;;;;79.25;41.67;;;-1.00;99.90;;;;;;5051523;28;20027;-56
2022/01/27 05:56:04;;;;;;;81.97;42.83;;;-1.00;99.90;;;;;;5050467;28;20025;-54
2022/01/27 05:58:29;;;;;;;81.95;43.28;;;-1.00;99.90;;;;;;5051645;28;20043;-53
2022/01/27 06:00:55;;;;;;;88.03;43.83;;;-1.10;99.90;;;;;;5051118;28;20534;-55
2022/01/27 06:03:21;;;;;;;83.13;44.58;;;-1.00;99.90;;;;;;5051220;28;20100;-56
2022/01/27 06:05:46;;;;;;;85.47;40.60;;;-1.10;99.90;;;;;;5051063;28;20036;-55
2022/01/27 06:08:12;;;;;;;89.32;46.75;;;-1.10;99.90;;;;;;5049925;28;20024;-57
2022/01/27 06:10:38;;;;;;;94.78;44.72;;;-1.20;99.90;;;;;;5049617;28;20572;-56
2022/01/27 06:13:03;;;;;;;101.40;48.53;;;-1.20;99.90;;;;;;5050891;28;20028;-57
2022/01/27 06:15:29;;;;;;;94.25;43.25;;;-1.20;99.90;;;;;;5050805;28;20037;-56
2022/01/27 06:17:57;;;;;;;96.78;43.83;;;-1.20;99.90;;;;;;5050727;28;20112;-57
2022/01/27 06:20:23;;;;;;;84.70;43.85;;;-1.20;99.90;;;;;;5051107;28;20036;-56
2022/01/27 06:22:59;;;;;;;85.85;41.75;;;-1.20;99.90;;;;;;5050569;28;20021;-56
2022/01/27 06:25:27;;;;;;;88.65;45.38;;;-1.30;99.90;;;;;;5050778;28;20530;-56
2022/01/27 06:27:53;;;;;;;89.82;44.25;;;-1.30;99.90;;;;;;5050718;28;20031;-56
2022/01/27 06:30:19;;;;;;;83.70;42.45;;;-1.40;99.90;;;;;;5050611;28;20047;-55
2022/01/27 06:32:45;;;;;;;91.80;44.42;;;-1.50;99.90;;;;;;5050504;28;20021;-56
2022/01/27 06:35:11;;;;;;;94.97;43.33;;;-1.50;99.90;;;;;;5050581;28;20389;-56
2022/01/27 06:37:37;;;;;;;88.97;43.75;;;-1.50;99.90;;;;;;5050657;28;20035;-53
2022/01/27 06:40:04;;;;;;;94.32;46.75;;;-1.50;99.90;;;;;;5050530;28;20162;-55
2022/01/27 06:42:30;;;;;;;91.07;44.58;;;-1.40;99.90;;;;;;5050539;28;20036;-55
2022/01/27 06:44:56;;;;;;;91.13;45.90;;;-1.40;99.90;;;;;;5048252;28;20028;-55
2022/01/27 06:47:22;;;;;;;96.00;43.45;;;-1.40;99.90;;;;;;5050756;28;20381;-54
2022/01/27 06:49:47;;;;;;;96.57;45.72;;;-1.40;99.90;;;;;;5049467;28;20353;-56
2022/01/27 06:52:13;;;;;;;145.55;59.67;;;-1.40;99.90;;;;;;5050172;28;20029;-56
2022/01/27 06:54:39;;;;;;;105.65;49.92;;;-1.50;99.90;;;;;;5051031;28;20025;-55
2022/01/27 06:57:05;;;;;;;94.68;43.65;;;-1.40;99.90;;;;;;5051394;28;20029;-55
2022/01/27 06:59:32;;;;;;;96.63;45.25;;;-1.40;99.90;;;;;;5051463;28;20111;-55
2022/01/27 07:01:57;;;;;;;100.88;45.45;;;-1.40;99.90;;;;;;5051262;28;20033;-55
2022/01/27 07:04:23;;;;;;;92.45;43.92;;;-1.40;99.90;;;;;;5051469;28;20444;-55
2022/01/27 07:06:51;;;;;;;89.05;43.60;;;-1.40;99.90;;;;;;5051299;28;20025;-57
2022/01/27 07:09:17;;;;;;;82.43;41.30;;;-1.40;99.90;;;;;;5051244;28;20067;-56
2022/01/27 07:11:43;;;;;;;77.22;41.25;;;-1.40;99.90;;;;;;5050017;28;20065;-57
2022/01/27 07:14:09;;;;;;;94.05;42.65;;;-1.40;99.90;;;;;;5051096;28;20052;-55
2022/01/27 07:16:34;;;;;;;89.47;42.97;;;-1.50;99.90;;;;;;5051034;28;20060;-53
2022/01/27 07:19:00;;;;;;;85.80;40.45;;;-1.50;99.90;;;;;;5051196;28;20440;-54
2022/01/27 07:21:26;;;;;;;90.10;39.63;;;-1.50;99.90;;;;;;5051404;28;20082;-54
2022/01/27 07:23:52;;;;;;;89.70;42.30;;;-1.50;99.90;;;;;;5051081;28;20025;-56
2022/01/27 07:26:24;;;;;;;84.63;40.53;;;-1.50;99.90;;;;;;5049919;28;20623;-55
2022/01/27 07:28:51;;;;;;;73.78;41.00;;;-1.50;99.90;;;;;;5050984;28;20025;-56
2022/01/27 07:31:16;;;;;;;92.68;45.63;;;-1.50;99.90;;;;;;5051019;28;20116;-55
2022/01/27 07:33:42;;;;;;;87.78;41.55;;;-1.50;99.90;;;;;;5049562;28;20182;-56
2022/01/27 07:36:07;;;;;;;89.60;43.28;;;-1.60;99.90;;;;;;5051093;28;20078;-52
2022/01/27 07:38:33;;;;;;;92.57;40.92;;;-1.50;99.90;;;;;;5051168;28;20025;-55
2022/01/27 07:40:59;;;;;;;89.43;42.50;;;-1.30;99.90;;;;;;5051140;28;20025;-55
2022/01/27 07:43:24;;;;;;;83.10;40.30;;;-1.20;99.90;;;;;;5051052;28;20412;-55
2022/01/27 07:45:51;;;;;;;76.32;37.88;;;-1.00;99.90;;;;;;5050777;28;20118;-53
2022/01/27 07:48:17;;;;;;;79.25;38.83;;;-0.90;99.90;;;;;;5051104;28;20021;-56
2022/01/27 07:50:43;;;;;;;83.75;42.17;;;-0.70;99.90;;;;;;5050944;28;20025;-56
2022/01/27 07:53:09;;;;;;;78.07;39.05;;;-0.60;99.90;;;;;;5050782;28;20013;-55
2022/01/27 07:55:35;;;;;;;80.30;40.45;;;-0.50;99.90;;;;;;5049218;28;20369;-52
2022/01/27 07:58:00;;;;;;;75.72;35.85;;;-0.30;99.90;;;;;;5050632;28;20018;-52
2022/01/27 08:00:26;;;;;;;72.13;36.08;;;-0.20;99.90;;;;;;5050835;28;20023;-56
2022/01/27 08:02:52;;;;;;;70.03;38.17;;;-0.10;99.90;;;;;;5050764;28;20029;-56
2022/01/27 08:05:18;;;;;;;71.03;36.80;;;0.00;99.90;;;;;;5050865;28;20060;-57
2022/01/27 08:07:43;;;;;;;70.80;35.05;;;0.10;99.90;;;;;;5050708;28;20036;-57
2022/01/27 08:10:09;;;;;;;65.18;35.00;;;0.20;99.90;;;;;;5050564;28;20114;-58
2022/01/27 08:12:44;;;;;;;59.58;32.20;;;0.40;99.90;;;;;;5050661;28;20044;-57
2022/01/27 08:15:11;;;;;;;70.28;34.83;;;0.50;99.90;;;;;;5050579;28;20045;-55
2022/01/27 08:17:38;;;;;;;56.67;31.50;;;0.50;99.90;;;;;;5050820;28;20110;-59
2022/01/27 08:20:04;;;;;;;59.13;32.20;;;0.60;99.90;;;;;;5036298;28;20136;-56
2022/01/27 08:22:32;;;;;;;59.90;32.60;;;0.70;99.90;;;;;;5033892;28;20025;-56
2022/01/27 08:24:57;;;;;;;59.08;31.85;;;0.70;99.90;;;;;;5033718;28;20083;-65
2022/01/27 08:27:28;;;;;;;57.33;30.73;;;0.90;99.90;;;;;;5033887;28;20614;-56
2022/01/27 08:29:59;;;;;;;50.97;29.17;;;1.10;99.90;;;;;;5033762;28;20457;-56
2022/01/27 08:32:34;;;;;;;50.70;30.33;;;1.20;99.90;;;;;;5033975;28;20075;-56
2022/01/27 08:35:00;;;;;;;57.55;30.92;;;1.20;99.90;;;;;;5033930;28;20052;-58
2022/01/27 08:37:25;;;;;;;52.28;28.63;;;1.30;99.90;;;;;;5034020;28;20041;-56
2022/01/27 08:39:51;;;;;;;50.35;28.08;;;1.40;99.90;;;;;;5033824;28;20033;-54
2022/01/27 08:42:17;;;;;;;48.88;25.48;;;1.40;99.90;;;;;;5032800;28;20469;-54
2022/01/27 08:44:43;;;;;;;50.88;28.73;;;1.40;99.90;;;;;;5033772;28;20030;-52
2022/01/27 08:47:11;;;;;;;48.83;27.08;;;1.50;99.90;;;;;;5032350;28;20516;-52
2022/01/27 08:49:37;;;;;;;46.05;25.17;;;1.50;99.90;;;;;;5033457;28;20315;-54
2022/01/27 08:52:03;;;;;;;41.08;25.52;;;1.70;99.90;;;;;;5033546;28;20032;-52
2022/01/27 08:54:29;;;;;;;39.55;23.75;;;1.80;99.90;;;;;;5033783;28;20120;-53
2022/01/27 08:56:55;;;;;;;43.30;25.63;;;1.80;99.90;;;;;;5033717;28;20109;-52
2022/01/27 08:59:21;;;;;;;46.83;26.50;;;1.80;99.90;;;;;;5032312;28;20022;-53
2022/01/27 09:01:47;;;;;;;46.28;25.77;;;1.80;99.90;;;;;;5033433;28;20172;-52
2022/01/27 09:04:12;;;;;;;44.28;26.15;;;1.80;99.90;;;;;;5033613;28;20686;-52
2022/01/27 09:06:38;;;;;;;50.80;25.58;;;1.90;99.90;;;;;;5033536;28;20075;-53
2022/01/27 09:09:05;;;;;;;46.78;23.25;;;2.00;99.90;;;;;;5033371;28;20128;-54
2022/01/27 09:11:31;;;;;;;42.00;24.00;;;2.20;99.90;;;;;;5033482;28;20155;-55
2022/01/27 09:14:01;;;;;;;33.30;19.45;;;2.30;99.90;;;;;;5033254;28;20508;-52
2022/01/27 09:16:28;;;;;;;36.22;19.45;;;2.50;99.90;;;;;;5031844;28;20519;-53
2022/01/27 09:18:56;;;;;;;30.10;17.65;;;2.50;99.90;;;;;;5031725;28;20109;-52
2022/01/27 09:21:25;;;;;;;32.38;18.00;;;2.70;99.90;;;;;;5033141;28;20092;-53
2022/01/27 09:23:53;;;;;;;30.10;17.33;;;3.00;99.90;;;;;;5033075;28;20060;-54
2022/01/27 09:26:41;;;;;;;51.38;28.17;;;3.20;99.90;;;;;;5033153;28;20109;-52
2022/01/27 09:29:08;;;;;;;26.85;14.65;;;3.20;99.90;;;;;;5032917;28;20036;-52
2022/01/27 09:31:35;;;;;;;31.40;20.65;;;3.40;99.90;;;;;;5031885;28;20025;-54
2022/01/27 09:34:01;;;;;;;26.00;16.23;;;3.50;99.90;;;;;;5032911;28;20680;-52
2022/01/27 09:36:26;;;;;;;28.15;17.05;;;3.40;99.90;;;;;;5032967;28;20026;-53
2022/01/27 09:38:52;;;;;;;28.70;17.98;;;3.50;99.90;;;;;;5032748;28;20365;-54
2022/01/27 09:41:20;;;;;;;52.28;24.23;;;3.80;99.90;;;;;;5032914;28;20227;-51
2022/01/27 09:43:53;;;;;;;32.42;17.75;;;3.80;99.90;;;;;;5032117;28;20040;-53
2022/01/27 09:46:24;;;;;;;34.43;17.70;;;4.10;99.90;;;;;;5032585;28;20030;-55
2022/01/27 09:48:51;;;;;;;99.60;30.85;;;4.20;99.90;;;;;;5032318;28;20407;-55
2022/01/27 09:51:38;;;;;;;21.00;12.77;;;4.30;99.90;;;;;;5032715;28;20025;-54
2022/01/27 09:54:05;;;;;;;32.92;19.92;;;4.60;99.90;;;;;;5032613;28;20358;-54
2022/01/27 09:56:31;;;;;;;40.03;26.83;;;5.10;99.10;;;;;;5032563;28;20033;-55
2022/01/27 09:58:57;;;;;;;21.63;13.93;;;5.90;97.10;;;;;;5032307;28;20086;-55
2022/01/27 10:01:23;;;;;;;16.95;11.45;;;7.70;92.80;;;;;;5032567;28;20037;-55
2022/01/27 10:03:59;;;;;;;17.75;11.55;;;9.40;82.80;;;;;;5032320;28;20037;-54
2022/01/27 10:06:29;;;;;;;16.88;10.48;;;10.90;70.20;;;;;;5032441;28;20057;-51
2022/01/27 10:09:18;;;;;;;17.80;11.45;;;11.60;61.80;;;;;;5032303;28;20104;-54
2022/01/27 10:11:49;;;;;;;12.30;8.50;;;12.10;58.50;;;;;;5032100;28;20112;-55
2022/01/27 10:14:26;;;;;;;12.73;8.02;;;13.70;53.50;;;;;;5032219;28;20038;-53
2022/01/27 10:16:55;;;;;;;14.15;8.75;;;14.50;48.40;;;;;;5031955;28;20033;-54
2022/01/27 10:19:23;;;;;;;9.23;6.93;;;13.20;50.80;;;;;;5030915;28;20430;-56
2022/01/27 10:21:50;;;;;;;10.25;7.45;;;14.20;47.60;;;;;;5032026;28;20029;-54
2022/01/27 10:24:24;;;;;;;9.63;7.05;;;14.60;46.90;;;;;;5032188;28;20052;-55
2022/01/27 10:27:23;;;;;;;11.07;6.80;;;14.60;44.80;;;;;;5031770;28;20403;-55
2022/01/27 10:32:40;;;;;;;10.23;6.30;;;13.10;47.70;;;;;;5031946;28;20528;-55
2022/01/27 10:35:07;;;;;;;7.50;5.00;;;13.50;45.00;;;;;;5031823;28;20028;-56
2022/01/27 10:38:05;;;;;;;14.10;5.30;;;12.80;46.60;;;;;;5031891;28;20373;-55
2022/01/27 10:40:34;;;;;;;6.72;5.03;;;11.10;47.30;;;;;;5022673;28;20026;-56
2022/01/27 10:43:05;;;;;;;15.05;5.28;;;11.40;49.70;;;;;;5011247;28;20363;-56
2022/01/27 10:45:31;;;;;;;7.88;4.93;;;11.30;47.40;;;;;;5024160;28;20481;-57
2022/01/27 10:48:14;;;;;;;8.43;5.38;;;11.30;48.80;;;;;;5031381;28;20052;-56
2022/01/27 10:51:16;;;;;;;17.33;5.20;;;12.80;47.60;;;;;;5031534;28;20035;-53
2022/01/27 10:54:03;;;;;;;6.90;4.45;;;12.30;46.80;;;;;;5031383;28;20047;-55
2022/01/27 10:56:39;;;;;;;5.60;4.75;;;13.40;44.60;;;;;;5031654;28;20033;-56
2022/01/27 10:59:16;;;;;;;8.32;5.60;;;13.20;44.70;;;;;;5031317;28;20030;-53
2022/01/27 11:01:44;;;;;;;7.82;4.40;;;12.60;46.00;;;;;;5031301;28;20036;-56
2022/01/27 11:04:12;;;;;;;5.70;4.20;;;12.00;45.20;;;;;;5031335;28;20031;-57
2022/01/27 11:06:55;;;;;;;29.70;5.75;;;12.80;45.10;;;;;;5030213;28;20361;-56
2022/01/27 11:09:21;;;;;;;16.17;4.97;;;12.60;46.00;;;;;;5031472;28;20025;-55
2022/01/27 11:11:49;;;;;;;4.85;3.70;;;11.90;44.70;;;;;;5031090;28;20435;-55
2022/01/27 11:14:15;;;;;;;5.07;4.00;;;13.50;43.60;;;;;;5031037;28;20357;-54
2022/01/27 11:16:43;;;;;;;5.38;3.70;;;11.60;44.60;;;;;;5031341;28;20024;-53
2022/01/27 11:21:41;;;;;;;5.72;3.45;;;12.60;44.40;;;;;;5031432;28;20068;-56
2022/01/27 11:24:33;;;;;;;5.72;3.45;;;14.30;41.50;;;;;;5031152;28;20029;-56
2022/01/27 11:27:02;;;;;;;12.68;4.00;;;14.90;38.50;;;;;;5030887;28;20037;-54
2022/01/27 11:29:30;;;;;;;9.90;3.58;;;14.20;39.10;;;;;;5030888;28;20437;-54
2022/01/27 11:32:11;;;;;;;4.47;3.25;;;12.80;39.90;;;;;;5030682;28;20045;-55
2022/01/27 11:34:51;;;;;;;6.07;2.60;;;12.80;41.70;;;;;;5031013;28;20017;-54
2022/01/27 11:37:30;;;;;;;9.23;2.63;;;12.60;41.50;;;;;;5031078;28;20026;-57
2022/01/27 11:40:00;;;;;;;4.85;2.80;;;12.80;41.50;;;;;;5029666;28;20029;-54
2022/01/27 11:42:35;;;;;;;4.13;2.38;;;13.60;39.30;;;;;;5031215;28;20108;-57
2022/01/27 11:45:23;;;;;;;2.85;2.20;;;14.60;37.60;;;;;;5030804;28;20041;-56
2022/01/27 11:48:06;;;;;;;22.23;4.55;;;14.00;37.40;;;;;;5030812;28;20022;-51
2022/01/27 11:50:58;;;;;;;39.17;15.38;;;14.00;40.50;;;;;;5031167;28;20088;-51
2022/01/27 11:53:33;;;;;;;63.72;19.05;;;13.80;39.00;;;;;;5029838;28;20027;-56
2022/01/27 11:56:24;;;;;;;29.58;11.32;;;14.00;38.30;;;;;;5034137;28;20075;-56
2022/01/27 11:58:52;;;;;;;17.35;3.58;;;14.50;38.70;;;;;;5034584;28;20025;-55
2022/01/27 12:01:27;;;;;;;3.58;2.83;;;14.20;39.00;;;;;;5034816;28;20029;-53
2022/01/27 12:04:16;;;;;;;4.78;3.05;;;15.10;37.80;;;;;;5034857;28;20029;-55
2022/01/27 12:07:02;;;;;;;7.50;3.55;;;14.60;38.50;;;;;;5034647;28;20029;-57
2022/01/27 12:09:30;;;;;;;7.72;3.33;;;15.30;37.40;;;;;;5034518;28;20037;-56
2022/01/27 12:12:03;;;;;;;11.20;3.63;;;14.20;37.90;;;;;;5034325;28;20104;-54
2022/01/27 12:14:34;;;;;;;18.80;4.30;;;15.40;36.50;;;;;;5034256;28;20049;-56
2022/01/27 12:17:09;;;;;;;7.07;4.43;;;14.80;37.50;;;;;;5034303;28;20033;-55
2022/01/27 12:19:52;;;;;;;6.80;5.00;;;15.70;37.20;;;;;;5034563;28;20504;-55
2022/01/27 12:22:22;;;;;;;8.13;5.32;;;14.00;39.30;;;;;;5034429;28;20389;-55
2022/01/27 12:24:55;;;;;;;11.30;5.63;;;14.60;38.30;;;;;;5034052;28;20759;-55
2022/01/27 12:27:24;;;;;;;10.70;4.25;;;15.30;37.30;;;;;;5034261;28;20080;-55
2022/01/27 12:29:52;;;;;;;13.85;5.35;;;16.30;37.90;;;;;;5033695;28;20068;-55
2022/01/27 12:32:25;;;;;;;7.07;5.43;;;14.90;37.40;;;;;;5031100;28;20022;-55
2022/01/27 12:35:08;;;;;;;16.02;7.20;;;15.70;37.00;;;;;;5034018;28;20021;-55
2022/01/27 12:37:36;;;;;;;10.30;5.27;;;15.20;38.60;;;;;;5034104;28;20017;-57
2022/01/27 12:40:18;;;;;;;6.28;4.15;;;14.10;40.10;;;;;;5033843;28;20037;-55
2022/01/27 12:42:55;;;;;;;12.02;6.88;;;15.90;37.40;;;;;;5034025;28;20769;-54
2022/01/27 12:45:26;;;;;;;19.00;5.72;;;16.10;37.70;;;;;;5033996;28;20029;-53
2022/01/27 12:47:52;;;;;;;10.23;4.60;;;15.20;38.90;;;;;;5033825;28;20391;-56
2022/01/27 12:50:21;;;;;;;22.17;7.82;;;15.60;39.30;;;;;;5032565;28;20026;-55
2022/01/27 12:52:51;;;;;;;13.70;7.45;;;13.80;39.60;;;;;;5033739;28;20056;-53
2022/01/27 12:55:21;;;;;;;20.05;8.05;;;14.00;40.60;;;;;;5032469;28;20025;-54
2022/01/27 12:57:58;;;;;;;26.17;11.55;;;14.20;40.10;;;;;;5033501;28;20071;-54
2022/01/27 13:00:25;;;;;;;19.85;7.47;;;14.30;39.30;;;;;;5033803;28;20516;-56
2022/01/27 13:02:50;;;;;;;10.38;6.70;;;15.20;39.60;;;;;;5033435;28;20373;-55
2022/01/27 13:05:16;;;;;;;10.27;6.65;;;16.10;37.90;;;;;;5033327;28;20025;-55
2022/01/27 13:07:46;;;;;;;14.70;6.80;;;14.90;38.90;;;;;;5033312;28;20380;-57
2022/01/27 13:10:17;;;;;;;9.57;5.03;;;14.70;39.90;;;;;;5033345;28;20151;-55
2022/01/27 13:12:49;;;;;;;12.00;7.47;;;13.70;41.20;;;;;;5033346;28;20473;-53
2022/01/27 13:15:30;;;;;;;16.00;9.68;;;14.40;41.90;;;;;;5033295;28;20401;-56
2022/01/27 13:18:11;;;;;;;27.80;10.05;;;14.20;41.00;;;;;;5032874;28;20013;-56
2022/01/27 13:20:42;;;;;;;11.10;6.00;;;14.70;40.60;;;;;;5033036;28;20026;-57